sensor_id;sensor_type;location;lat;lon;timestamp;pressure;altitude;pressure_sealevel;temperature;humidity
17383;BME280;8809;51.892;8.384;2023-11-18T00:00:56;101434.81;;;4.93;100.00
17383;BME280;8809;51.892;8.384;2023-11-18T00:03:24;101435.56;;;5.14;100.00
17383;BME280;8809;51.892;8.384;2023-11-18T00:05:53;101439.06;;;5.14;100.00
17383;BME280;8809;51.892;8.384;2023-11-18T00:08:20;101437.38;;;5.15;100.00
17383;BME280;8809;51.892;8.384;2023-11-18T00:10:47;101443.44;;;5.15;100.00
17383;BME280;8809;51.892;8.384;2023-11-18T00:13:14;101444.22;;;5.14;100.00
17383;BME280;8809;51.892;8.384;2023-11-18T00:15:41;101446.16;;;5.17;100.00
17383;BME280;8809;51.892;8.384;2023-11-18T00:18:08;101451.63;;;5.10;100.00
17383;BME280;8809;51.892;8.384;2023-11-18T00:20:36;101453.00;;;5.16;100.00
17383;BME280;8809;51.892;8.384;2023-11-18T00:23:05;101453.34;;;5.21;100.00
17383;BME280;8809;51.892;8.384;2023-11-18T00:25:32;101453.66;;;5.14;100.00
17383;BME280;8809;51.892;8.384;2023-11-18T00:28:02;101455.72;;;5.18;100.00
17383;BME280;8809;51.892;8.384;2023-11-18T00:30:29;101461.09;;;5.21;100.00
17383;BME280;8809;51.892;8.384;2023-11-18T00:32:56;101453.72;;;5.26;100.00
17383;BME280;8809;51.892;8.384;2023-11-18T00:35:23;101456.94;;;5.23;100.00
17383;BME280;8809;51.892;8.384;2023-11-18T00:37:50;101453.91;;;5.29;100.00
17383;BME280;8809;51.892;8.384;2023-11-18T00:40:19;101452.56;;;5.22;100.00
17383;BME280;8809;51.892;8.384;2023-11-18T00:42:46;101454.38;;;5.23;100.00
17383;BME280;8809;51.892;8.384;2023-11-18T00:45:13;101443.06;;;5.11;100.00
17383;BME280;8809;51.892;8.384;2023-11-18T00:47:40;101444.34;;;5.16;100.00
17383;BME280;8809;51.892;8.384;2023-11-18T00:50:08;101446.44;;;5.10;100.00
17383;BME280;8809;51.892;8.384;2023-11-18T00:52:35;101442.41;;;5.13;100.00
17383;BME280;8809;51.892;8.384;2023-11-18T00:55:05;101447.53;;;5.02;100.00
17383;BME280;8809;51.892;8.384;2023-11-18T00:57:34;101441.91;;;4.96;100.00
17383;BME280;8809;51.892;8.384;2023-11-18T01:00:01;101447.78;;;5.05;100.00
17383;BME280;8809;51.892;8.384;2023-11-18T01:02:29;101447.34;;;5.10;100.00
17383;BME280;8809;51.892;8.384;2023-11-18T01:04:57;101458.50;;;5.09;100.00
17383;BME280;8809;51.892;8.384;2023-11-18T01:07:24;101458.38;;;5.08;100.00
17383;BME280;8809;51.892;8.384;2023-11-18T01:09:51;101459.09;;;5.17;100.00
17383;BME280;8809;51.892;8.384;2023-11-18T01:12:18;101454.03;;;5.18;100.00
17383;BME280;8809;51.892;8.384;2023-11-18T01:14:47;101457.59;;;5.20;100.00
17383;BME280;8809;51.892;8.384;2023-11-18T01:17:14;101460.31;;;5.22;100.00
17383;BME280;8809;51.892;8.384;2023-11-18T01:19:42;101458.06;;;5.15;100.00
17383;BME280;8809;51.892;8.384;2023-11-18T01:22:09;101463.88;;;5.12;100.00
17383;BME280;8809;51.892;8.384;2023-11-18T01:24:37;101456.50;;;5.17;100.00
17383;BME280;8809;51.892;8.384;2023-11-18T01:27:04;101459.09;;;5.17;100.00
17383;BME280;8809;51.892;8.384;2023-11-18T01:29:33;101462.69;;;5.19;100.00
17383;BME280;8809;51.892;8.384;2023-11-18T01:32:02;101468.09;;;5.22;100.00
17383;BME280;8809;51.892;8.384;2023-11-18T01:34:34;101466.72;;;5.15;100.00
17383;BME280;8809;51.892;8.384;2023-11-18T01:37:03;101471.66;;;5.12;100.00
17383;BME280;8809;51.892;8.384;2023-11-18T01:39:32;101469.72;;;5.10;100.00
17383;BME280;8809;51.892;8.384;2023-11-18T01:42:02;101479.53;;;5.14;100.00
17383;BME280;8809;51.892;8.384;2023-11-18T01:44:30;101476.81;;;5.12;100.00
17383;BME280;8809;51.892;8.384;2023-11-18T01:46:58;101481.78;;;5.09;100.00
17383;BME280;8809;51.892;8.384;2023-11-18T01:49:27;101480.75;;;5.07;100.00
17383;BME280;8809;51.892;8.384;2023-11-18T01:51:55;101477.13;;;5.05;100.00
17383;BME280;8809;51.892;8.384;2023-11-18T01:54:23;101482.44;;;5.07;100.00
17383;BME280;8809;51.892;8.384;2023-11-18T01:56:51;101484.53;;;5.01;100.00
17383;BME280;8809;51.892;8.384;2023-11-18T01:59:18;101482.75;;;5.00;100.00
17383;BME280;8809;51.892;8.384;2023-11-18T02:01:47;101482.00;;;4.91;100.00
17383;BME280;8809;51.892;8.384;2023-11-18T02:04:15;101491.69;;;4.93;100.00
17383;BME280;8809;51.892;8.384;2023-11-18T02:06:47;101488.59;;;4.75;100.00
17383;BME280;8809;51.892;8.384;2023-11-18T02:09:15;101486.00;;;4.75;100.00
17383;BME280;8809;51.892;8.384;2023-11-18T02:11:49;101485.47;;;4.79;100.00
17383;BME280;8809;51.892;8.384;2023-11-18T02:14:20;101474.75;;;4.75;100.00
17383;BME280;8809;51.892;8.384;2023-11-18T02:16:49;101477.22;;;4.73;100.00
17383;BME280;8809;51.892;8.384;2023-11-18T02:19:21;101473.38;;;4.68;100.00
17383;BME280;8809;51.892;8.384;2023-11-18T02:21:52;101477.28;;;4.63;100.00
17383;BME280;8809;51.892;8.384;2023-11-18T02:24:26;101476.53;;;4.54;100.00
17383;BME280;8809;51.892;8.384;2023-11-18T02:27:00;101472.38;;;4.34;100.00
17383;BME280;8809;51.892;8.384;2023-11-18T02:29:31;101476.00;;;4.36;100.00
17383;BME280;8809;51.892;8.384;2023-11-18T02:32:05;101471.97;;;4.40;100.00
17383;BME280;8809;51.892;8.384;2023-11-18T02:34:40;101476.63;;;4.34;100.00
17383;BME280;8809;51.892;8.384;2023-11-18T02:37:11;101465.56;;;4.25;100.00
17383;BME280;8809;51.892;8.384;2023-11-18T02:39:39;101465.06;;;4.29;100.00
17383;BME280;8809;51.892;8.384;2023-11-18T02:42:12;101464.66;;;4.24;100.00
17383;BME280;8809;51.892;8.384;2023-11-18T02:44:40;101474.09;;;4.24;100.00
17383;BME280;8809;51.892;8.384;2023-11-18T02:47:08;101461.72;;;4.20;100.00
17383;BME280;8809;51.892;8.384;2023-11-18T02:49:35;101461.91;;;4.11;100.00
17383;BME280;8809;51.892;8.384;2023-11-18T02:52:02;101458.41;;;4.10;100.00
17383;BME280;8809;51.892;8.384;2023-11-18T02:54:30;101459.22;;;3.99;100.00
17383;BME280;8809;51.892;8.384;2023-11-18T02:56:57;101464.13;;;3.96;100.00
17383;BME280;8809;51.892;8.384;2023-11-18T02:59:29;101460.00;;;3.98;100.00
17383;BME280;8809;51.892;8.384;2023-11-18T03:01:56;101461.28;;;4.03;100.00
17383;BME280;8809;51.892;8.384;2023-11-18T03:04:23;101469.03;;;4.03;100.00
17383;BME280;8809;51.892;8.384;2023-11-18T03:06:51;101466.13;;;4.21;100.00
17383;BME280;8809;51.892;8.384;2023-11-18T03:09:18;101467.06;;;4.11;100.00
17383;BME280;8809;51.892;8.384;2023-11-18T03:11:45;101464.06;;;4.17;100.00
17383;BME280;8809;51.892;8.384;2023-11-18T03:14:12;101464.47;;;4.11;100.00
17383;BME280;8809;51.892;8.384;2023-11-18T03:16:41;101458.41;;;4.10;100.00
17383;BME280;8809;51.892;8.384;2023-11-18T03:19:08;101447.97;;;4.09;100.00
17383;BME280;8809;51.892;8.384;2023-11-18T03:21:36;101448.38;;;4.03;100.00
17383;BME280;8809;51.892;8.384;2023-11-18T03:24:05;101450.41;;;4.07;100.00
17383;BME280;8809;51.892;8.384;2023-11-18T03:26:32;101448.91;;;3.99;100.00
17383;BME280;8809;51.892;8.384;2023-11-18T03:28:59;101447.47;;;4.03;100.00
17383;BME280;8809;51.892;8.384;2023-11-18T03:31:31;101448.75;;;3.98;100.00
17383;BME280;8809;51.892;8.384;2023-11-18T03:33:59;101446.34;;;3.89;100.00
17383;BME280;8809;51.892;8.384;2023-11-18T03:36:26;101431.88;;;3.91;100.00
17383;BME280;8809;51.892;8.384;2023-11-18T03:38:53;101434.50;;;3.81;100.00
17383;BME280;8809;51.892;8.384;2023-11-18T03:41:20;101436.78;;;3.88;100.00
17383;BME280;8809;51.892;8.384;2023-11-18T03:43:49;101438.63;;;3.79;100.00
17383;BME280;8809;51.892;8.384;2023-11-18T03:46:16;101428.59;;;3.72;100.00
17383;BME280;8809;51.892;8.384;2023-11-18T03:48:44;101425.22;;;3.83;100.00
17383;BME280;8809;51.892;8.384;2023-11-18T03:51:13;101423.00;;;3.78;100.00
17383;BME280;8809;51.892;8.384;2023-11-18T03:53:42;101422.00;;;3.65;100.00
17383;BME280;8809;51.892;8.384;2023-11-18T03:56:09;101411.06;;;3.58;100.00
17383;BME280;8809;51.892;8.384;2023-11-18T03:58:36;101415.47;;;3.49;100.00
17383;BME280;8809;51.892;8.384;2023-11-18T04:01:04;101414.34;;;3.35;100.00
17383;BME280;8809;51.892;8.384;2023-11-18T04:03:31;101410.16;;;3.57;100.00
17383;BME280;8809;51.892;8.384;2023-11-18T04:05:59;101415.69;;;3.72;100.00
17383;BME280;8809;51.892;8.384;2023-11-18T04:08:27;101417.00;;;3.57;100.00
17383;BME280;8809;51.892;8.384;2023-11-18T04:10:54;101416.50;;;3.61;100.00
17383;BME280;8809;51.892;8.384;2023-11-18T04:13:22;101419.06;;;3.61;100.00
17383;BME280;8809;51.892;8.384;2023-11-18T04:15:49;101419.56;;;3.57;100.00
17383;BME280;8809;51.892;8.384;2023-11-18T04:18:17;101417.00;;;3.57;100.00
17383;BME280;8809;51.892;8.384;2023-11-18T04:20:44;101418.06;;;3.49;100.00
17383;BME280;8809;51.892;8.384;2023-11-18T04:23:11;101405.31;;;3.40;100.00
17383;BME280;8809;51.892;8.384;2023-11-18T04:25:41;101405.44;;;3.42;100.00
17383;BME280;8809;51.892;8.384;2023-11-18T04:28:08;101404.13;;;3.47;100.00
17383;BME280;8809;51.892;8.384;2023-11-18T04:30:36;101413.69;;;3.38;100.00
17383;BME280;8809;51.892;8.384;2023-11-18T04:33:04;101411.00;;;3.26;100.00
17383;BME280;8809;51.892;8.384;2023-11-18T04:35:31;101404.19;;;3.26;100.00
17383;BME280;8809;51.892;8.384;2023-11-18T04:38:00;101398.38;;;3.19;100.00
17383;BME280;8809;51.892;8.384;2023-11-18T04:40:27;101392.84;;;3.14;100.00
17383;BME280;8809;51.892;8.384;2023-11-18T04:42:56;101398.00;;;3.14;100.00
17383;BME280;8809;51.892;8.384;2023-11-18T04:45:23;101394.13;;;3.09;100.00
17383;BME280;8809;51.892;8.384;2023-11-18T04:47:50;101390.78;;;2.90;100.00
17383;BME280;8809;51.892;8.384;2023-11-18T04:50:17;101390.13;;;2.92;100.00
17383;BME280;8809;51.892;8.384;2023-11-18T04:52:44;101380.72;;;2.73;100.00
17383;BME280;8809;51.892;8.384;2023-11-18T04:55:11;101371.72;;;2.68;100.00
17383;BME280;8809;51.892;8.384;2023-11-18T04:57:39;101378.28;;;2.64;100.00
17383;BME280;8809;51.892;8.384;2023-11-18T05:00:09;101376.97;;;2.69;100.00
17383;BME280;8809;51.892;8.384;2023-11-18T05:02:37;101370.81;;;2.67;100.00
17383;BME280;8809;51.892;8.384;2023-11-18T05:05:04;101370.94;;;2.69;100.00
17383;BME280;8809;51.892;8.384;2023-11-18T05:07:33;101367.19;;;2.65;100.00
17383;BME280;8809;51.892;8.384;2023-11-18T05:10:00;101357.81;;;3.06;100.00
17383;BME280;8809;51.892;8.384;2023-11-18T05:12:28;101353.28;;;3.04;100.00
17383;BME280;8809;51.892;8.384;2023-11-18T05:14:56;101358.56;;;2.75;100.00
17383;BME280;8809;51.892;8.384;2023-11-18T05:17:24;101360.13;;;2.83;100.00
17383;BME280;8809;51.892;8.384;2023-11-18T05:19:52;101360.88;;;2.92;100.00
17383;BME280;8809;51.892;8.384;2023-11-18T05:22:19;101370.16;;;2.90;100.00
17383;BME280;8809;51.892;8.384;2023-11-18T05:24:47;101362.69;;;2.83;100.00
17383;BME280;8809;51.892;8.384;2023-11-18T05:27:18;101356.91;;;2.75;100.00
17383;BME280;8809;51.892;8.384;2023-11-18T05:29:45;101351.75;;;2.75;100.00
17383;BME280;8809;51.892;8.384;2023-11-18T05:32:20;101345.19;;;2.69;100.00
17383;BME280;8809;51.892;8.384;2023-11-18T05:34:50;101350.56;;;2.82;100.00
17383;BME280;8809;51.892;8.384;2023-11-18T05:37:19;101346.97;;;2.70;100.00
17383;BME280;8809;51.892;8.384;2023-11-18T05:39:47;101349.94;;;2.74;100.00
17383;BME280;8809;51.892;8.384;2023-11-18T05:42:19;101347.22;;;2.73;100.00
17383;BME280;8809;51.892;8.384;2023-11-18T05:44:46;101353.69;;;2.78;100.00
17383;BME280;8809;51.892;8.384;2023-11-18T05:47:13;101353.16;;;2.72;100.00
17383;BME280;8809;51.892;8.384;2023-11-18T05:49:40;101347.72;;;2.89;100.00
17383;BME280;8809;51.892;8.384;2023-11-18T05:52:09;101337.19;;;2.86;100.00
17383;BME280;8809;51.892;8.384;2023-11-18T05:54:37;101340.28;;;2.82;100.00
17383;BME280;8809;51.892;8.384;2023-11-18T05:57:04;101341.03;;;2.91;100.00
17383;BME280;8809;51.892;8.384;2023-11-18T05:59:32;101332.94;;;2.86;100.00
17383;BME280;8809;51.892;8.384;2023-11-18T06:02:00;101331.91;;;2.84;100.00
17383;BME280;8809;51.892;8.384;2023-11-18T06:04:29;101337.84;;;2.83;100.00
17383;BME280;8809;51.892;8.384;2023-11-18T06:06:56;101340.53;;;2.85;100.00
17383;BME280;8809;51.892;8.384;2023-11-18T06:09:25;101338.72;;;2.84;100.00
17383;BME280;8809;51.892;8.384;2023-11-18T06:11:54;101338.22;;;2.78;100.00
17383;BME280;8809;51.892;8.384;2023-11-18T06:14:21;101329.47;;;2.76;100.00
17383;BME280;8809;51.892;8.384;2023-11-18T06:16:48;101335.88;;;2.71;100.00
17383;BME280;8809;51.892;8.384;2023-11-18T06:19:17;101337.69;;;2.72;100.00
17383;BME280;8809;51.892;8.384;2023-11-18T06:21:44;101326.38;;;2.59;100.00
17383;BME280;8809;51.892;8.384;2023-11-18T06:24:11;101334.09;;;2.70;100.00
17383;BME280;8809;51.892;8.384;2023-11-18T06:26:41;101347.22;;;2.63;100.00
17383;BME280;8809;51.892;8.384;2023-11-18T06:29:08;101339.50;;;2.73;100.00
17383;BME280;8809;51.892;8.384;2023-11-18T06:31:36;101342.63;;;2.69;100.00
17383;BME280;8809;51.892;8.384;2023-11-18T06:34:03;101345.97;;;2.68;100.00
17383;BME280;8809;51.892;8.384;2023-11-18T06:36:30;101358.06;;;2.69;100.00
17383;BME280;8809;51.892;8.384;2023-11-18T06:38:57;101366.03;;;2.72;100.00
17383;BME280;8809;51.892;8.384;2023-11-18T06:41:24;101360.13;;;2.73;100.00
17383;BME280;8809;51.892;8.384;2023-11-18T06:44:01;101357.53;;;2.63;100.00
17383;BME280;8809;51.892;8.384;2023-11-18T06:46:35;101353.03;;;2.80;100.00
17383;BME280;8809;51.892;8.384;2023-11-18T06:49:05;101348.78;;;2.81;100.00
17383;BME280;8809;51.892;8.384;2023-11-18T06:51:34;101351.63;;;2.84;100.00
17383;BME280;8809;51.892;8.384;2023-11-18T06:54:04;101342.84;;;2.92;100.00
17383;BME280;8809;51.892;8.384;2023-11-18T06:56:35;101335.88;;;2.91;100.00
17383;BME280;8809;51.892;8.384;2023-11-18T06:59:06;101340.00;;;2.99;100.00
17383;BME280;8809;51.892;8.384;2023-11-18T07:01:33;101336.91;;;3.13;100.00
17383;BME280;8809;51.892;8.384;2023-11-18T07:04:01;101341.44;;;3.06;100.00
17383;BME280;8809;51.892;8.384;2023-11-18T07:06:28;101337.81;;;3.04;100.00
17383;BME280;8809;51.892;8.384;2023-11-18T07:08:56;101337.81;;;3.04;100.00
17383;BME280;8809;51.892;8.384;2023-11-18T07:11:29;101336.50;;;2.98;100.00
17383;BME280;8809;51.892;8.384;2023-11-18T07:13:58;101332.03;;;3.06;100.00
17383;BME280;8809;51.892;8.384;2023-11-18T07:16:26;101341.78;;;3.10;100.00
17383;BME280;8809;51.892;8.384;2023-11-18T07:18:53;101345.81;;;3.17;100.00
17383;BME280;8809;51.892;8.384;2023-11-18T07:21:19;101332.22;;;3.19;100.00
17383;BME280;8809;51.892;8.384;2023-11-18T07:23:47;101332.84;;;3.27;100.00
17383;BME280;8809;51.892;8.384;2023-11-18T07:26:14;101346.13;;;3.31;100.00
17383;BME280;8809;51.892;8.384;2023-11-18T07:28:41;101341.41;;;3.26;100.00
17383;BME280;8809;51.892;8.384;2023-11-18T07:31:09;101334.59;;;3.16;100.00
17383;BME280;8809;51.892;8.384;2023-11-18T07:33:38;101343.84;;;3.24;100.00
17383;BME280;8809;51.892;8.384;2023-11-18T07:36:06;101339.72;;;3.26;100.00
17383;BME280;8809;51.892;8.384;2023-11-18T07:38:36;101340.69;;;3.39;100.00
17383;BME280;8809;51.892;8.384;2023-11-18T07:41:04;101346.63;;;3.38;100.00
17383;BME280;8809;51.892;8.384;2023-11-18T07:43:34;101352.34;;;3.33;100.00
17383;BME280;8809;51.892;8.384;2023-11-18T07:46:02;101358.53;;;3.35;100.00
17383;BME280;8809;51.892;8.384;2023-11-18T07:48:29;101357.50;;;3.23;100.00
17383;BME280;8809;51.892;8.384;2023-11-18T07:50:58;101356.44;;;3.42;100.00
17383;BME280;8809;51.892;8.384;2023-11-18T07:53:25;101342.16;;;3.35;100.00
17383;BME280;8809;51.892;8.384;2023-11-18T07:55:56;101330.13;;;3.46;100.00
17383;BME280;8809;51.892;8.384;2023-11-18T07:58:23;101326.97;;;3.60;100.00
17383;BME280;8809;51.892;8.384;2023-11-18T08:00:52;101328.91;;;3.62;100.00
17383;BME280;8809;51.892;8.384;2023-11-18T08:03:20;101322.59;;;3.59;100.00
17383;BME280;8809;51.892;8.384;2023-11-18T08:05:48;101321.63;;;3.68;100.00
17383;BME280;8809;51.892;8.384;2023-11-18T08:08:18;101313.00;;;3.68;100.00
17383;BME280;8809;51.892;8.384;2023-11-18T08:10:46;101307.19;;;3.70;100.00
17383;BME280;8809;51.892;8.384;2023-11-18T08:13:14;101307.78;;;3.78;100.00
17383;BME280;8809;51.892;8.384;2023-11-18T08:15:43;101300.44;;;3.83;100.00
17383;BME280;8809;51.892;8.384;2023-11-18T08:18:11;101302.22;;;4.05;100.00
17383;BME280;8809;51.892;8.384;2023-11-18T08:20:38;101302.94;;;4.15;100.00
17383;BME280;8809;51.892;8.384;2023-11-18T08:23:07;101306.84;;;4.31;100.00
17383;BME280;8809;51.892;8.384;2023-11-18T08:25:36;101302.16;;;4.37;100.00
17383;BME280;8809;51.892;8.384;2023-11-18T08:28:04;101305.75;;;4.39;100.00
17383;BME280;8809;51.892;8.384;2023-11-18T08:30:33;101308.03;;;4.46;100.00
17383;BME280;8809;51.892;8.384;2023-11-18T08:33:00;101305.44;;;4.46;100.00
17383;BME280;8809;51.892;8.384;2023-11-18T08:35:29;101303.78;;;4.59;100.00
17383;BME280;8809;51.892;8.384;2023-11-18T08:37:57;101305.81;;;4.63;100.00
17383;BME280;8809;51.892;8.384;2023-11-18T08:40:24;101324.94;;;4.65;100.00
17383;BME280;8809;51.892;8.384;2023-11-18T08:42:53;101325.28;;;4.69;100.00
17383;BME280;8809;51.892;8.384;2023-11-18T08:45:22;101328.09;;;4.72;100.00
17383;BME280;8809;51.892;8.384;2023-11-18T08:47:53;101335.34;;;4.55;100.00
17383;BME280;8809;51.892;8.384;2023-11-18T08:50:21;101326.00;;;4.78;100.00
17383;BME280;8809;51.892;8.384;2023-11-18T08:52:50;101329.81;;;4.83;100.00
17383;BME280;8809;51.892;8.384;2023-11-18T08:55:20;101331.19;;;4.90;100.00
17383;BME280;8809;51.892;8.384;2023-11-18T08:57:48;101326.03;;;4.90;100.00
17383;BME280;8809;51.892;8.384;2023-11-18T09:00:30;101324.78;;;4.97;100.00
17383;BME280;8809;51.892;8.384;2023-11-18T09:03:15;101326.41;;;5.18;100.00
17383;BME280;8809;51.892;8.384;2023-11-18T09:05:51;101322.00;;;5.17;100.00
17383;BME280;8809;51.892;8.384;2023-11-18T09:10:53;101307.59;;;5.32;100.00
17383;BME280;8809;51.892;8.384;2023-11-18T09:13:21;101302.06;;;5.39;100.00
17383;BME280;8809;51.892;8.384;2023-11-18T09:15:52;101288.81;;;5.46;100.00
17383;BME280;8809;51.892;8.384;2023-11-18T09:18:19;101284.09;;;5.52;100.00
17383;BME280;8809;51.892;8.384;2023-11-18T09:20:47;101287.56;;;5.65;100.00
17383;BME280;8809;51.892;8.384;2023-11-18T09:23:14;101290.03;;;5.75;100.00
17383;BME280;8809;51.892;8.384;2023-11-18T09:25:42;101278.28;;;5.80;100.00
17383;BME280;8809;51.892;8.384;2023-11-18T09:28:12;101293.59;;;5.88;100.00
17383;BME280;8809;51.892;8.384;2023-11-18T09:30:41;101290.88;;;5.87;100.00
17383;BME280;8809;51.892;8.384;2023-11-18T09:33:18;101285.50;;;5.84;100.00
17383;BME280;8809;51.892;8.384;2023-11-18T09:35:52;101272.31;;;5.81;100.00
17383;BME280;8809;51.892;8.384;2023-11-18T09:38:25;101270.97;;;5.86;100.00
17383;BME280;8809;51.892;8.384;2023-11-18T09:40:55;101263.66;;;5.92;100.00
17383;BME280;8809;51.892;8.384;2023-11-18T09:43:24;101262.75;;;5.91;100.00
17383;BME280;8809;51.892;8.384;2023-11-18T09:45:55;101254.31;;;5.94;100.00
17383;BME280;8809;51.892;8.384;2023-11-18T09:48:24;101246.69;;;6.09;100.00
17383;BME280;8809;51.892;8.384;2023-11-18T09:50:56;101245.34;;;6.14;100.00
17383;BME280;8809;51.892;8.384;2023-11-18T09:53:25;101240.97;;;6.13;100.00
17383;BME280;8809;51.892;8.384;2023-11-18T09:56:04;101233.94;;;6.23;100.00
17383;BME280;8809;51.892;8.384;2023-11-18T09:58:39;101228.13;;;6.14;100.00
17383;BME280;8809;51.892;8.384;2023-11-18T10:01:10;101223.28;;;6.32;100.00
17383;BME280;8809;51.892;8.384;2023-11-18T10:03:42;101230.13;;;6.56;100.00
17383;BME280;8809;51.892;8.384;2023-11-18T10:06:12;101233.22;;;6.51;100.00
17383;BME280;8809;51.892;8.384;2023-11-18T10:08:41;101232.78;;;6.45;100.00
17383;BME280;8809;51.892;8.384;2023-11-18T10:11:12;101219.19;;;6.74;100.00
17383;BME280;8809;51.892;8.384;2023-11-18T10:13:39;101229.34;;;6.84;100.00
17383;BME280;8809;51.892;8.384;2023-11-18T10:16:10;101232.38;;;6.90;100.00
17383;BME280;8809;51.892;8.384;2023-11-18T10:18:38;101224.50;;;6.88;100.00
17383;BME280;8809;51.892;8.384;2023-11-18T10:21:16;101221.09;;;7.02;100.00
17383;BME280;8809;51.892;8.384;2023-11-18T10:23:59;101219.81;;;6.96;100.00
17383;BME280;8809;51.892;8.384;2023-11-18T10:26:27;101224.50;;;7.01;100.00
17383;BME280;8809;51.892;8.384;2023-11-18T10:29:04;101222.53;;;7.11;100.00
17383;BME280;8809;51.892;8.384;2023-11-18T10:31:33;101214.31;;;7.18;100.00
17383;BME280;8809;51.892;8.384;2023-11-18T10:34:02;101202.03;;;7.15;100.00
17383;BME280;8809;51.892;8.384;2023-11-18T10:36:31;101198.81;;;7.32;100.00
17383;BME280;8809;51.892;8.384;2023-11-18T10:39:01;101205.13;;;7.36;100.00
17383;BME280;8809;51.892;8.384;2023-11-18T10:41:40;101207.50;;;7.46;100.00
17383;BME280;8809;51.892;8.384;2023-11-18T10:44:09;101204.88;;;7.59;100.00
17383;BME280;8809;51.892;8.384;2023-11-18T10:46:41;101192.63;;;7.85;100.00
17383;BME280;8809;51.892;8.384;2023-11-18T10:49:08;101171.13;;;7.87;100.00
17383;BME280;8809;51.892;8.384;2023-11-18T10:51:37;101173.09;;;7.91;100.00
17383;BME280;8809;51.892;8.384;2023-11-18T10:54:06;101171.50;;;7.93;100.00
17383;BME280;8809;51.892;8.384;2023-11-18T10:56:46;101167.00;;;7.91;100.00
17383;BME280;8809;51.892;8.384;2023-11-18T10:59:14;101156.91;;;8.10;100.00
17383;BME280;8809;51.892;8.384;2023-11-18T11:01:42;101156.91;;;8.10;100.00
17383;BME280;8809;51.892;8.384;2023-11-18T11:04:11;101159.25;;;8.20;100.00
17383;BME280;8809;51.892;8.384;2023-11-18T11:06:44;101152.47;;;8.22;100.00
17383;BME280;8809;51.892;8.384;2023-11-18T11:09:18;101152.72;;;8.27;100.00
17383;BME280;8809;51.892;8.384;2023-11-18T11:11:54;101145.00;;;8.28;100.00
17383;BME280;8809;51.892;8.384;2023-11-18T11:14:23;101144.78;;;8.38;100.00
17383;BME280;8809;51.892;8.384;2023-11-18T11:17:05;101138.69;;;8.38;100.00
17383;BME280;8809;51.892;8.384;2023-11-18T11:19:44;101137.72;;;8.36;100.00
17383;BME280;8809;51.892;8.384;2023-11-18T11:22:24;101132.31;;;8.47;100.00
17383;BME280;8809;51.892;8.384;2023-11-18T11:25:06;101124.25;;;8.57;100.00
17383;BME280;8809;51.892;8.384;2023-11-18T11:27:41;101113.03;;;8.59;100.00
17383;BME280;8809;51.892;8.384;2023-11-18T11:30:22;101111.63;;;8.49;100.00
17383;BME280;8809;51.892;8.384;2023-11-18T11:32:52;101106.84;;;8.56;100.00
17383;BME280;8809;51.892;8.384;2023-11-18T11:35:22;101099.84;;;8.55;100.00
17383;BME280;8809;51.892;8.384;2023-11-18T11:37:52;101096.13;;;8.50;100.00
17383;BME280;8809;51.892;8.384;2023-11-18T11:40:22;101104.34;;;8.58;100.00
17383;BME280;8809;51.892;8.384;2023-11-18T11:42:50;101121.38;;;8.68;100.00
17383;BME280;8809;51.892;8.384;2023-11-18T11:45:22;101115.56;;;8.57;100.00
17383;BME280;8809;51.892;8.384;2023-11-18T11:47:56;101116.44;;;8.72;100.00
17383;BME280;8809;51.892;8.384;2023-11-18T11:50:50;101120.03;;;8.74;100.00
17383;BME280;8809;51.892;8.384;2023-11-18T11:53:26;101114.47;;;8.68;100.00
17383;BME280;8809;51.892;8.384;2023-11-18T11:55:56;101112.75;;;8.69;100.00
17383;BME280;8809;51.892;8.384;2023-11-18T11:58:33;101106.84;;;8.71;100.00
17383;BME280;8809;51.892;8.384;2023-11-18T12:01:15;101104.97;;;8.69;100.00
17383;BME280;8809;51.892;8.384;2023-11-18T12:03:44;101114.22;;;8.64;100.00
17383;BME280;8809;51.892;8.384;2023-11-18T12:06:16;101100.41;;;8.65;100.00
17383;BME280;8809;51.892;8.384;2023-11-18T12:08:48;101090.88;;;8.65;100.00
17383;BME280;8809;51.892;8.384;2023-11-18T12:11:17;101086.66;;;8.67;100.00
17383;BME280;8809;51.892;8.384;2023-11-18T12:14:01;101082.94;;;8.93;100.00
17383;BME280;8809;51.892;8.384;2023-11-18T12:17:03;101081.34;;;8.80;100.00
17383;BME280;8809;51.892;8.384;2023-11-18T12:19:41;101076.34;;;8.83;100.00
17383;BME280;8809;51.892;8.384;2023-11-18T12:22:15;101069.06;;;8.78;100.00
17383;BME280;8809;51.892;8.384;2023-11-18T12:28:15;101071.34;;;8.72;100.00
17383;BME280;8809;51.892;8.384;2023-11-18T12:30:44;101062.16;;;8.78;100.00
17383;BME280;8809;51.892;8.384;2023-11-18T12:33:22;101066.28;;;8.75;100.00
17383;BME280;8809;51.892;8.384;2023-11-18T12:39:17;101057.66;;;8.76;100.00
17383;BME280;8809;51.892;8.384;2023-11-18T12:41:55;101060.16;;;8.89;100.00
17383;BME280;8809;51.892;8.384;2023-11-18T12:44:36;101054.13;;;8.74;100.00
17383;BME280;8809;51.892;8.384;2023-11-18T12:47:05;101059.66;;;8.65;100.00
17383;BME280;8809;51.892;8.384;2023-11-18T12:49:41;101050.31;;;8.83;100.00
17383;BME280;8809;51.892;8.384;2023-11-18T12:52:10;101043.81;;;8.61;100.00
17383;BME280;8809;51.892;8.384;2023-11-18T12:54:41;101028.63;;;8.68;100.00
17383;BME280;8809;51.892;8.384;2023-11-18T12:57:09;101023.41;;;8.83;100.00
17383;BME280;8809;51.892;8.384;2023-11-18T12:59:41;101019.91;;;8.82;100.00
17383;BME280;8809;51.892;8.384;2023-11-18T13:02:09;101005.59;;;8.90;100.00
17383;BME280;8809;51.892;8.384;2023-11-18T13:04:39;100999.69;;;8.93;100.00
17383;BME280;8809;51.892;8.384;2023-11-18T13:07:06;100990.53;;;8.69;100.00
17383;BME280;8809;51.892;8.384;2023-11-18T13:09:37;100977.84;;;8.75;100.00
17383;BME280;8809;51.892;8.384;2023-11-18T13:12:07;100971.81;;;8.76;100.00
17383;BME280;8809;51.892;8.384;2023-11-18T13:14:35;100971.28;;;8.81;100.00
17383;BME280;8809;51.892;8.384;2023-11-18T13:17:09;100970.63;;;8.85;100.00
17383;BME280;8809;51.892;8.384;2023-11-18T13:19:37;100970.47;;;8.82;100.00
17383;BME280;8809;51.892;8.384;2023-11-18T13:22:05;100971.91;;;8.77;100.00